Time;durP1;ratioP1;P1;durP2;ratioP2;P2;SDS_P1;SDS_P2;PMS_P1;PMS_P2;Temp;Humidity;BMP_temperature;BMP_pressure;BME280_temperature;BME280_humidity;BME280_pressure;Samples;Min_cycle;Max_cycle;Signal;HPM_P1;HPM_P2
2022/11/30 00:02:38;;;;;;;26.27;13.13;;;;;;;;;;8338136;28;20039;-63
2022/11/30 00:06:40;;;;;;;32.95;12.63;;;;;;;;;;8334421;28;20787;-63
2022/11/30 00:10:41;;;;;;;29.38;12.55;;;;;;;;;;8335037;28;20040;-62
2022/11/30 00:14:41;;;;;;;29.70;12.98;;;;;;;;;;8334512;28;20021;-63
2022/11/30 00:18:41;;;;;;;27.93;13.20;;;;;;;;;;8335123;28;20044;-63
2022/11/30 00:22:41;;;;;;;25.93;13.40;;;;;;;;;;8335260;28;20146;-63
2022/11/30 00:26:42;;;;;;;26.45;13.48;;;;;;;;;;8335022;28;20264;-62
2022/11/30 00:30:43;;;;;;;32.53;14.17;;;;;;;;;;8335970;28;20505;-62
2022/11/30 00:34:43;;;;;;;28.45;12.77;;;;;;;;;;8334431;28;20283;-63
2022/11/30 00:38:43;;;;;;;31.33;13.00;;;;;;;;;;8337196;28;20755;-63
2022/11/30 00:42:44;;;;;;;29.67;12.70;;;;;;;;;;8335442;28;20286;-62
2022/11/30 00:46:44;;;;;;;36.00;14.83;;;;;;;;;;8335442;28;20757;-63
2022/11/30 00:50:44;;;;;;;34.80;15.23;;;;;;;;;;8336778;28;20329;-63
2022/11/30 00:54:44;;;;;;;34.78;15.48;;;;;;;;;;8335536;28;20353;-63
2022/11/30 00:58:45;;;;;;;37.47;15.50;;;;;;;;;;8335059;28;20021;-63
2022/11/30 01:02:45;;;;;;;32.30;15.00;;;;;;;;;;8334708;28;20037;-62
2022/11/30 01:06:45;;;;;;;31.67;14.93;;;;;;;;;;8333761;28;20025;-62
2022/11/30 01:10:49;;;;;;;33.00;14.98;;;;;;;;;;8341353;28;20028;-63
2022/11/30 01:14:50;;;;;;;31.95;14.98;;;;;;;;;;8340581;28;20156;-63
2022/11/30 01:18:51;;;;;;;31.30;15.23;;;;;;;;;;8340711;28;20147;-63
2022/11/30 01:22:51;;;;;;;35.97;16.42;;;;;;;;;;8339363;28;20056;-62
2022/11/30 01:26:51;;;;;;;33.42;15.60;;;;;;;;;;8337743;28;20017;-63
2022/11/30 01:30:58;;;;;;;30.90;14.63;;;;;;;;;;8338042;28;20671;-63
2022/11/30 01:34:59;;;;;;;37.00;15.60;;;;;;;;;;8337950;28;20386;-62
2022/11/30 01:39:00;;;;;;;32.45;14.55;;;;;;;;;;8342019;28;20027;-63
2022/11/30 01:43:00;;;;;;;31.98;14.45;;;;;;;;;;8340826;28;20825;-63
2022/11/30 01:47:08;;;;;;;31.83;15.07;;;;;;;;;;8340556;28;20040;-62
2022/11/30 01:51:08;;;;;;;29.90;14.85;;;;;;;;;;8339987;28;21187;-63
2022/11/30 01:55:18;;;;;;;35.42;15.25;;;;;;;;;;8340306;28;20049;-63
2022/11/30 01:59:20;;;;;;;31.50;13.90;;;;;;;;;;8340733;28;20060;-63
2022/11/30 02:03:29;;;;;;;31.73;14.75;;;;;;;;;;8340201;28;20040;-63
2022/11/30 02:07:29;;;;;;;31.67;16.17;;;;;;;;;;8339739;28;20036;-62
2022/11/30 02:11:30;;;;;;;38.93;15.53;;;;;;;;;;8342010;28;20036;-63
2022/11/30 02:15:34;;;;;;;37.05;15.20;;;;;;;;;;8338035;28;20390;-62
2022/11/30 02:19:35;;;;;;;32.60;15.30;;;;;;;;;;8339482;28;20615;-63
2022/11/30 02:23:41;;;;;;;31.02;14.65;;;;;;;;;;8341896;28;20036;-62
2022/11/30 02:27:49;;;;;;;30.45;14.68;;;;;;;;;;8338973;28;20146;-68
2022/11/30 02:31:52;;;;;;;32.70;15.32;;;;;;;;;;8337380;28;20037;-63
2022/11/30 02:35:54;;;;;;;30.92;14.98;;;;;;;;;;8339604;28;20028;-63
2022/11/30 02:39:54;;;;;;;32.42;15.10;;;;;;;;;;8339798;28;20787;-63
2022/11/30 02:43:54;;;;;;;33.30;14.77;;;;;;;;;;8339857;28;20410;-63
2022/11/30 02:48:01;;;;;;;34.22;15.70;;;;;;;;;;8339179;28;20036;-63
2022/11/30 02:52:02;;;;;;;29.42;15.02;;;;;;;;;;8337065;28;20021;-62
2022/11/30 02:56:03;;;;;;;28.90;14.40;;;;;;;;;;8340746;28;20032;-63
2022/11/30 03:00:06;;;;;;;32.50;15.48;;;;;;;;;;8337657;28;20036;-63
2022/11/30 03:04:06;;;;;;;30.33;15.05;;;;;;;;;;8339224;28;20109;-63
2022/11/30 03:08:07;;;;;;;32.28;14.65;;;;;;;;;;8340425;28;20033;-62
2022/11/30 03:12:07;;;;;;;34.95;15.88;;;;;;;;;;8337704;28;20028;-62
2022/11/30 03:16:09;;;;;;;30.05;14.45;;;;;;;;;;8336903;28;20044;-62
2022/11/30 03:20:09;;;;;;;32.85;15.43;;;;;;;;;;8338584;28;20027;-63
2022/11/30 03:24:09;;;;;;;33.80;15.43;;;;;;;;;;8337699;28;20025;-64
2022/11/30 03:28:09;;;;;;;30.00;14.73;;;;;;;;;;8337941;28;20275;-63
2022/11/30 03:32:10;;;;;;;33.90;15.45;;;;;;;;;;8335963;28;20361;-62
2022/11/30 03:36:10;;;;;;;33.38;15.45;;;;;;;;;;8338943;28;20024;-63
2022/11/30 03:40:11;;;;;;;32.47;14.57;;;;;;;;;;8336541;28;20024;-63
2022/11/30 03:44:11;;;;;;;32.13;15.32;;;;;;;;;;8337787;28;20489;-63
2022/11/30 03:48:11;;;;;;;26.95;13.32;;;;;;;;;;8337899;28;20044;-63
2022/11/30 03:52:11;;;;;;;32.78;15.10;;;;;;;;;;8337414;28;20135;-62
2022/11/30 03:56:13;;;;;;;32.87;15.63;;;;;;;;;;8336505;28;20028;-63
2022/11/30 04:00:13;;;;;;;32.53;15.70;;;;;;;;;;8338528;28;20706;-65
2022/11/30 04:04:13;;;;;;;38.05;14.85;;;;;;;;;;8335905;28;20028;-63
2022/11/30 04:08:14;;;;;;;32.03;14.50;;;;;;;;;;8337839;28;20061;-63
2022/11/30 04:12:14;;;;;;;32.85;14.57;;;;;;;;;;8337882;28;20585;-63
2022/11/30 04:16:14;;;;;;;37.60;15.98;;;;;;;;;;8336096;28;20123;-63
2022/11/30 04:20:14;;;;;;;33.65;15.75;;;;;;;;;;8336240;28;20025;-62
2022/11/30 04:24:15;;;;;;;35.28;15.63;;;;;;;;;;8335495;28;20027;-62
2022/11/30 04:28:15;;;;;;;35.40;15.50;;;;;;;;;;8335469;28;20017;-63
2022/11/30 04:32:16;;;;;;;33.53;16.05;;;;;;;;;;8335361;28;20286;-63
2022/11/30 04:36:19;;;;;;;35.33;15.02;;;;;;;;;;8336630;28;20024;-62
2022/11/30 04:40:19;;;;;;;32.00;16.27;;;;;;;;;;8333023;28;20086;-64
2022/11/30 04:44:19;;;;;;;34.07;14.67;;;;;;;;;;8334373;28;20194;-62
2022/11/30 04:48:20;;;;;;;32.40;15.40;;;;;;;;;;8336728;28;20278;-63
2022/11/30 04:52:20;;;;;;;34.45;14.63;;;;;;;;;;8334397;28;20033;-62
2022/11/30 04:56:20;;;;;;;30.95;14.23;;;;;;;;;;8335193;28;21085;-62
2022/11/30 05:00:20;;;;;;;27.20;14.02;;;;;;;;;;8333268;28;20021;-63
2022/11/30 05:04:21;;;;;;;30.58;14.95;;;;;;;;;;8337372;28;20152;-62
2022/11/30 05:08:21;;;;;;;35.50;15.32;;;;;;;;;;8336396;28;20029;-62
2022/11/30 05:12:21;;;;;;;34.43;14.63;;;;;;;;;;8334531;28;20025;-64
2022/11/30 05:16:21;;;;;;;27.55;14.23;;;;;;;;;;8335007;28;20278;-63
2022/11/30 05:20:22;;;;;;;34.35;14.98;;;;;;;;;;8336191;28;20032;-63
2022/11/30 05:24:22;;;;;;;29.02;13.95;;;;;;;;;;8333741;28;20033;-63
2022/11/30 05:28:22;;;;;;;31.35;15.38;;;;;;;;;;8336189;28;20559;-64
2022/11/30 05:32:22;;;;;;;28.10;14.37;;;;;;;;;;8334025;28;20048;-62
2022/11/30 05:36:23;;;;;;;27.37;14.43;;;;;;;;;;8334463;28;20894;-63
2022/11/30 05:40:24;;;;;;;31.13;15.20;;;;;;;;;;8334512;28;20366;-63
2022/11/30 05:44:24;;;;;;;33.78;15.13;;;;;;;;;;8335078;28;20033;-63
2022/11/30 05:48:25;;;;;;;28.27;14.57;;;;;;;;;;8334080;28;20043;-63
2022/11/30 05:52:25;;;;;;;33.42;14.45;;;;;;;;;;8335674;28;20402;-63
2022/11/30 05:56:25;;;;;;;27.13;14.20;;;;;;;;;;8338497;28;20602;-64
2022/11/30 06:00:26;;;;;;;26.23;13.47;;;;;;;;;;8340251;28;20346;-64
2022/11/30 06:04:26;;;;;;;28.67;14.60;;;;;;;;;;8338840;28;20280;-68
2022/11/30 06:08:26;;;;;;;32.13;14.02;;;;;;;;;;8339452;28;20032;-63
2022/11/30 06:12:27;;;;;;;25.90;13.38;;;;;;;;;;8337703;28;20567;-64
2022/11/30 06:16:27;;;;;;;27.87;13.77;;;;;;;;;;8338215;28;20110;-63
2022/11/30 06:20:27;;;;;;;29.13;13.35;;;;;;;;;;8338331;28;20310;-63
2022/11/30 06:24:28;;;;;;;24.13;12.67;;;;;;;;;;8339604;28;20035;-62
2022/11/30 06:28:28;;;;;;;20.95;11.63;;;;;;;;;;8340337;28;20295;-63
2022/11/30 06:32:28;;;;;;;22.23;11.88;;;;;;;;;;8335077;28;20043;-63
2022/11/30 06:36:30;;;;;;;21.00;11.25;;;;;;;;;;8338659;28;20032;-62
2022/11/30 06:40:31;;;;;;;23.27;11.23;;;;;;;;;;8337141;28;20016;-62
2022/11/30 06:44:31;;;;;;;19.40;10.65;;;;;;;;;;8339731;28;20028;-63
2022/11/30 06:48:31;;;;;;;19.17;10.77;;;;;;;;;;8336457;28;20083;-63
2022/11/30 06:52:32;;;;;;;17.48;10.13;;;;;;;;;;8338889;28;21125;-64
2022/11/30 06:56:32;;;;;;;19.27;10.23;;;;;;;;;;8338802;28;20631;-63
2022/11/30 07:00:33;;;;;;;18.70;10.10;;;;;;;;;;8336955;28;20119;-62
2022/11/30 07:04:33;;;;;;;20.40;10.50;;;;;;;;;;8335496;28;20029;-62
2022/11/30 07:08:33;;;;;;;20.27;10.88;;;;;;;;;;8338592;28;20037;-62
2022/11/30 07:12:34;;;;;;;17.77;9.52;;;;;;;;;;8337711;28;20348;-63
2022/11/30 07:16:34;;;;;;;20.58;9.63;;;;;;;;;;8333427;28;20037;-63
2022/11/30 07:20:35;;;;;;;17.93;9.63;;;;;;;;;;8326460;28;20017;-62
2022/11/30 07:28:56;;;;;;;18.05;9.52;;;;;;;;;;8329980;28;20051;-62
2022/11/30 07:32:57;;;;;;;17.67;10.27;;;;;;;;;;8326309;28;20045;-62
2022/11/30 07:36:57;;;;;;;16.90;9.35;;;;;;;;;;8326834;28;20031;-62
2022/11/30 07:40:57;;;;;;;16.07;9.27;;;;;;;;;;8325716;28;20021;-63
2022/11/30 07:44:57;;;;;;;19.77;10.38;;;;;;;;;;8326943;28;20362;-63
2022/11/30 07:48:58;;;;;;;16.55;9.55;;;;;;;;;;8323755;28;20028;-63
2022/11/30 07:52:58;;;;;;;18.67;9.70;;;;;;;;;;8329832;28;20037;-61
2022/11/30 07:56:58;;;;;;;13.75;7.72;;;;;;;;;;8325454;28;20024;-61
2022/11/30 08:01:03;;;;;;;13.48;8.32;;;;;;;;;;8323213;28;20029;-62
2022/11/30 08:05:03;;;;;;;20.42;8.77;;;;;;;;;;8326556;28;20025;-62
2022/11/30 08:09:04;;;;;;;14.02;8.85;;;;;;;;;;8323165;28;20024;-62
2022/11/30 08:13:04;;;;;;;18.40;9.75;;;;;;;;;;8323006;28;22133;-63
2022/11/30 08:17:04;;;;;;;17.40;9.13;;;;;;;;;;8330431;28;20620;-62
2022/11/30 08:21:06;;;;;;;19.20;9.95;;;;;;;;;;8331029;28;20059;-62
2022/11/30 08:25:06;;;;;;;17.38;8.40;;;;;;;;;;8347811;28;20511;-62
2022/11/30 08:29:08;;;;;;;22.50;9.68;;;;;;;;;;8331348;28;20025;-66
2022/11/30 08:33:09;;;;;;;14.43;8.10;;;;;;;;;;8331151;28;20128;-62
2022/11/30 08:37:09;;;;;;;12.85;8.07;;;;;;;;;;8330605;28;20337;-62
2022/11/30 08:41:10;;;;;;;13.38;8.13;;;;;;;;;;8331454;28;20025;-62
2022/11/30 08:45:11;;;;;;;11.77;7.70;;;;;;;;;;8326525;28;20696;-63
2022/11/30 08:49:11;;;;;;;12.63;8.70;;;;;;;;;;8334415;28;20047;-63
2022/11/30 08:53:11;;;;;;;12.85;7.75;;;;;;;;;;8337120;28;20349;-63
2022/11/30 08:57:11;;;;;;;11.30;6.72;;;;;;;;;;8335753;28;20533;-62
2022/11/30 09:01:15;;;;;;;15.43;8.23;;;;;;;;;;8335843;28;20582;-62
2022/11/30 09:05:15;;;;;;;23.33;8.50;;;;;;;;;;8337317;28;20025;-62
2022/11/30 09:09:16;;;;;;;13.77;8.80;;;;;;;;;;8336314;28;20024;-63
2022/11/30 09:13:16;;;;;;;19.75;9.55;;;;;;;;;;8335115;28;20335;-65
2022/11/30 09:17:16;;;;;;;35.20;10.57;;;;;;;;;;8334124;28;20379;-63
2022/11/30 09:21:18;;;;;;;16.13;9.32;;;;;;;;;;8336607;28;20496;-63
2022/11/30 09:25:19;;;;;;;14.32;8.93;;;;;;;;;;8336666;28;20029;-64
2022/11/30 09:29:19;;;;;;;15.27;9.30;;;;;;;;;;8334909;28;20078;-64
2022/11/30 09:33:20;;;;;;;16.63;9.38;;;;;;;;;;8341037;28;20044;-64
2022/11/30 09:37:22;;;;;;;12.98;8.02;;;;;;;;;;8343130;28;20147;-64
2022/11/30 09:41:35;;;;;;;12.45;7.90;;;;;;;;;;8345846;28;20183;-63
2022/11/30 09:45:36;;;;;;;13.07;8.23;;;;;;;;;;8340613;28;20055;-63
2022/11/30 09:49:38;;;;;;;12.32;7.75;;;;;;;;;;8340485;28;20071;-64
2022/11/30 09:53:43;;;;;;;11.77;7.97;;;;;;;;;;8342947;28;20037;-63
2022/11/30 09:57:45;;;;;;;13.02;8.32;;;;;;;;;;8341705;28;20588;-63
2022/11/30 10:01:47;;;;;;;13.93;8.02;;;;;;;;;;8338351;28;20047;-63
2022/11/30 10:05:50;;;;;;;11.55;7.85;;;;;;;;;;8338853;28;20486;-63
2022/11/30 10:09:59;;;;;;;12.85;7.50;;;;;;;;;;8344800;28;20174;-63
2022/11/30 10:14:18;;;;;;;11.93;7.20;;;;;;;;;;8365915;28;20028;-63
2022/11/30 10:18:18;;;;;;;11.63;8.20;;;;;;;;;;8343817;28;20033;-63
2022/11/30 10:22:34;;;;;;;12.15;8.13;;;;;;;;;;8339117;28;20090;-63
2022/11/30 10:26:36;;;;;;;12.27;8.27;;;;;;;;;;8338577;28;20278;-63
2022/11/30 10:30:37;;;;;;;12.32;8.10;;;;;;;;;;8338174;28;20048;-63
2022/11/30 10:34:39;;;;;;;12.27;8.00;;;;;;;;;;8339373;28;20116;-65
2022/11/30 10:38:45;;;;;;;11.70;7.70;;;;;;;;;;8341983;28;20758;-63
2022/11/30 10:43:05;;;;;;;12.32;8.18;;;;;;;;;;8339135;28;20021;-63
2022/11/30 10:47:14;;;;;;;12.80;8.02;;;;;;;;;;8339884;28;20138;-64
2022/11/30 10:51:15;;;;;;;11.82;8.05;;;;;;;;;;8338270;28;20824;-64
2022/11/30 10:55:20;;;;;;;12.30;8.32;;;;;;;;;;8337775;28;20703;-63
2022/11/30 10:59:22;;;;;;;11.80;7.60;;;;;;;;;;8337651;28;20043;-63
2022/11/30 11:03:23;;;;;;;9.95;7.72;;;;;;;;;;8337348;28;20059;-65
2022/11/30 11:07:23;;;;;;;11.38;7.50;;;;;;;;;;8338992;28;20065;-64
2022/11/30 11:11:37;;;;;;;10.70;7.30;;;;;;;;;;8338522;28;20043;-63
2022/11/30 11:15:37;;;;;;;10.13;7.25;;;;;;;;;;8337858;28;20775;-64
2022/11/30 11:19:39;;;;;;;10.85;6.82;;;;;;;;;;8337681;28;20059;-63
2022/11/30 11:23:40;;;;;;;8.77;6.80;;;;;;;;;;8337813;28;20029;-63
2022/11/30 11:27:40;;;;;;;9.43;6.78;;;;;;;;;;8337254;28;20100;-64
2022/11/30 11:31:45;;;;;;;9.40;6.50;;;;;;;;;;8337551;28;20132;-64
2022/11/30 11:35:46;;;;;;;9.68;6.63;;;;;;;;;;8336187;28;20049;-63
2022/11/30 11:40:05;;;;;;;10.52;7.00;;;;;;;;;;8339967;28;20028;-65
2022/11/30 11:44:08;;;;;;;12.07;7.18;;;;;;;;;;8335720;28;20143;-64
2022/11/30 11:48:25;;;;;;;11.38;7.10;;;;;;;;;;8332274;28;20033;-64
2022/11/30 11:52:25;;;;;;;9.20;6.78;;;;;;;;;;8335277;28;20035;-64
2022/11/30 11:56:27;;;;;;;11.27;7.28;;;;;;;;;;8337464;28;20020;-64
2022/11/30 12:00:27;;;;;;;11.93;6.65;;;;;;;;;;8336122;28;20062;-64
2022/11/30 12:04:32;;;;;;;10.50;8.05;;;;;;;;;;8335847;28;20035;-64
2022/11/30 12:08:36;;;;;;;10.90;7.63;;;;;;;;;;8335898;28;20603;-63
2022/11/30 12:12:38;;;;;;;10.70;7.80;;;;;;;;;;8335167;28;20032;-63
2022/11/30 12:16:38;;;;;;;11.02;6.97;;;;;;;;;;8332329;28;20516;-63
2022/11/30 12:20:38;;;;;;;14.63;9.05;;;;;;;;;;8334209;28;20012;-64
2022/11/30 12:24:45;;;;;;;11.82;8.05;;;;;;;;;;8336336;28;20094;-63
2022/11/30 12:29:03;;;;;;;14.65;9.25;;;;;;;;;;8337519;28;20490;-63
2022/11/30 12:33:03;;;;;;;12.88;8.90;;;;;;;;;;8333842;28;20124;-64
2022/11/30 12:37:06;;;;;;;13.02;8.95;;;;;;;;;;8335287;28;20032;-65
2022/11/30 12:41:22;;;;;;;14.05;9.32;;;;;;;;;;8336016;28;20496;-66
2022/11/30 12:45:25;;;;;;;13.40;9.43;;;;;;;;;;8333478;28;22469;-65
2022/11/30 12:49:31;;;;;;;16.00;9.65;;;;;;;;;;8337787;28;20028;-65
2022/11/30 12:53:31;;;;;;;14.98;10.02;;;;;;;;;;8336665;28;20029;-66
2022/11/30 12:57:33;;;;;;;17.40;10.73;;;;;;;;;;8336881;28;20029;-65
2022/11/30 13:01:52;;;;;;;17.45;10.60;;;;;;;;;;8335157;28;20500;-65
2022/11/30 13:05:56;;;;;;;17.40;10.32;;;;;;;;;;8340426;28;20103;-65
2022/11/30 13:09:56;;;;;;;;;;;;;;;;;;8342289;28;20392;-64
2022/11/30 13:13:58;;;;;;;19.02;10.88;;;;;;;;;;8340037;28;19959;-65
2022/11/30 13:18:00;;;;;;;20.20;11.13;;;;;;;;;;8341390;28;20530;-65
2022/11/30 13:22:03;;;;;;;17.77;11.05;;;;;;;;;;8342447;28;20191;-64
2022/11/30 13:26:30;;;;;;;22.45;12.10;;;;;;;;;;8341712;28;20025;-64
2022/11/30 13:30:35;;;;;;;16.58;10.50;;;;;;;;;;8322090;28;20115;-65
2022/11/30 13:34:35;;;;;;;14.57;9.82;;;;;;;;;;8343623;28;20035;-64
2022/11/30 13:38:35;;;;;;;16.55;10.50;;;;;;;;;;8343147;28;20137;-64
2022/11/30 13:42:38;;;;;;;16.00;9.38;;;;;;;;;;8339785;28;20032;-63
2022/11/30 13:46:46;;;;;;;13.40;9.35;;;;;;;;;;8342023;28;20409;-65
2022/11/30 13:50:47;;;;;;;14.50;9.95;;;;;;;;;;8339938;28;20029;-63
2022/11/30 13:54:53;;;;;;;14.57;9.45;;;;;;;;;;8343276;28;20048;-63
2022/11/30 13:59:13;;;;;;;14.40;9.70;;;;;;;;;;8342334;28;20307;-65
2022/11/30 14:03:19;;;;;;;16.27;9.80;;;;;;;;;;8317459;28;20056;-64
2022/11/30 14:07:32;;;;;;;14.90;9.95;;;;;;;;;;8342092;28;20379;-63
2022/11/30 14:11:32;;;;;;;15.00;10.05;;;;;;;;;;8340469;28;20511;-64
2022/11/30 14:15:42;;;;;;;20.98;11.80;;;;;;;;;;8340746;28;20037;-63
2022/11/30 14:19:44;;;;;;;22.90;13.35;;;;;;;;;;8337918;28;20028;-64
2022/11/30 14:23:54;;;;;;;26.77;13.23;;;;;;;;;;8343258;28;20013;-64
2022/11/30 14:27:55;;;;;;;21.92;12.38;;;;;;;;;;8339951;28;20033;-64
2022/11/30 14:31:59;;;;;;;23.00;12.63;;;;;;;;;;8335769;28;20101;-63
2022/11/30 14:36:00;;;;;;;22.88;13.80;;;;;;;;;;8340716;28;20562;-64
2022/11/30 14:40:02;;;;;;;23.58;13.77;;;;;;;;;;8340701;28;20071;-64
2022/11/30 14:44:04;;;;;;;22.50;13.45;;;;;;;;;;8338756;28;20025;-64
2022/11/30 14:48:16;;;;;;;25.63;13.93;;;;;;;;;;8337713;28;20087;-64
2022/11/30 14:52:31;;;;;;;33.25;14.18;;;;;;;;;;8340193;28;20127;-64
2022/11/30 14:56:32;;;;;;;44.60;11.90;;;;;;;;;;8342202;28;20013;-64
2022/11/30 15:00:36;;;;;;;27.53;10.50;;;;;;;;;;8341473;28;20118;-64
2022/11/30 15:04:36;;;;;;;68.95;12.23;;;;;;;;;;8339596;28;20925;-64
2022/11/30 15:08:37;;;;;;;211.93;13.33;;;;;;;;;;8340381;28;20448;-63
2022/11/30 15:12:39;;;;;;;34.20;9.73;;;;;;;;;;8339495;28;20334;-64
2022/11/30 15:17:05;;;;;;;169.50;11.80;;;;;;;;;;8334849;28;20033;-65
2022/11/30 15:21:09;;;;;;;184.52;13.23;;;;;;;;;;8332939;28;20159;-65
2022/11/30 15:25:09;;;;;;;;;;;;;;;;;;8337900;28;20025;-64
2022/11/30 15:29:22;;;;;;;18.08;10.52;;;;;;;;;;8335408;28;20067;-65
2022/11/30 15:33:23;;;;;;;21.58;10.73;;;;;;;;;;8337532;28;20040;-63
2022/11/30 15:37:28;;;;;;;17.85;10.48;;;;;;;;;;8334869;28;20025;-64
2022/11/30 15:41:28;;;;;;;14.65;9.23;;;;;;;;;;8337430;28;20035;-64
2022/11/30 15:45:30;;;;;;;9.73;6.45;;;;;;;;;;8334073;28;20132;-64
2022/11/30 15:49:31;;;;;;;7.45;5.30;;;;;;;;;;8336551;28;20040;-64
2022/11/30 15:53:33;;;;;;;8.82;5.72;;;;;;;;;;8337417;28;20090;-64
2022/11/30 15:57:52;;;;;;;10.93;5.80;;;;;;;;;;8336688;28;20013;-65
2022/11/30 16:02:04;;;;;;;9.07;6.00;;;;;;;;;;8333680;28;20048;-64
2022/11/30 16:06:05;;;;;;;10.57;6.40;;;;;;;;;;8336100;28;20213;-64
2022/11/30 16:10:17;;;;;;;10.18;6.95;;;;;;;;;;8337404;28;20046;-64
2022/11/30 16:14:17;;;;;;;12.10;7.93;;;;;;;;;;8336367;28;20086;-64
2022/11/30 16:18:19;;;;;;;12.95;9.15;;;;;;;;;;8336381;28;20456;-64
2022/11/30 16:22:19;;;;;;;17.90;10.32;;;;;;;;;;8333988;28;20035;-65
2022/11/30 16:26:19;;;;;;;17.45;11.00;;;;;;;;;;8337874;28;20024;-64
2022/11/30 16:30:21;;;;;;;21.45;11.80;;;;;;;;;;8334120;28;20545;-64
2022/11/30 16:34:21;;;;;;;21.40;11.48;;;;;;;;;;8335445;28;20028;-63
2022/11/30 16:38:22;;;;;;;19.45;11.75;;;;;;;;;;8336131;28;20025;-64
2022/11/30 16:42:24;;;;;;;18.60;10.90;;;;;;;;;;8337623;28;20063;-65
2022/11/30 16:46:25;;;;;;;16.40;11.23;;;;;;;;;;8333797;28;20049;-64
2022/11/30 16:50:25;;;;;;;19.65;11.07;;;;;;;;;;8335053;28;20382;-64
2022/11/30 16:54:25;;;;;;;15.05;10.65;;;;;;;;;;8334475;28;20029;-64
2022/11/30 16:58:26;;;;;;;12.80;9.18;;;;;;;;;;8335191;28;20021;-64
2022/11/30 17:02:27;;;;;;;16.08;10.20;;;;;;;;;;8334912;28;20557;-64
2022/11/30 17:06:28;;;;;;;14.95;10.57;;;;;;;;;;8333429;28;20879;-65
2022/11/30 17:10:30;;;;;;;16.02;10.40;;;;;;;;;;8335349;28;20063;-64
2022/11/30 17:14:30;;;;;;;11.25;8.70;;;;;;;;;;8334318;28;20531;-64
2022/11/30 17:18:30;;;;;;;15.93;10.15;;;;;;;;;;8336358;28;20037;-64
2022/11/30 17:22:32;;;;;;;13.90;9.65;;;;;;;;;;8335538;28;20032;-64
2022/11/30 17:26:33;;;;;;;15.35;9.85;;;;;;;;;;8335215;28;20135;-64
2022/11/30 17:30:33;;;;;;;16.17;10.15;;;;;;;;;;8343770;28;20044;-64
2022/11/30 17:34:33;;;;;;;15.97;10.10;;;;;;;;;;8335554;28;20495;-64
2022/11/30 17:38:34;;;;;;;15.88;10.43;;;;;;;;;;8333855;28;20796;-64
2022/11/30 17:42:34;;;;;;;15.18;9.52;;;;;;;;;;8335825;28;20277;-64
2022/11/30 17:46:35;;;;;;;16.70;10.50;;;;;;;;;;8335309;28;20037;-64
2022/11/30 17:50:39;;;;;;;16.48;10.10;;;;;;;;;;8334447;28;20079;-64
2022/11/30 17:54:39;;;;;;;18.37;11.10;;;;;;;;;;8343255;28;20070;-64
2022/11/30 17:58:40;;;;;;;15.67;10.53;;;;;;;;;;8337780;28;20263;-64
2022/11/30 18:02:40;;;;;;;21.15;11.68;;;;;;;;;;8340311;28;20275;-65
2022/11/30 18:06:41;;;;;;;16.47;11.47;;;;;;;;;;8341657;28;20032;-64
2022/11/30 18:10:43;;;;;;;17.08;11.43;;;;;;;;;;8339349;28;20280;-64
2022/11/30 18:14:44;;;;;;;17.42;11.45;;;;;;;;;;8340755;28;20039;-64
2022/11/30 18:18:44;;;;;;;15.50;10.57;;;;;;;;;;8338086;28;20039;-64
2022/11/30 18:22:44;;;;;;;21.08;11.50;;;;;;;;;;8337567;28;20052;-64
2022/11/30 18:26:45;;;;;;;14.07;10.23;;;;;;;;;;8342180;28;20081;-64
2022/11/30 18:30:45;;;;;;;13.65;9.73;;;;;;;;;;8334832;28;20318;-64
2022/11/30 18:34:48;;;;;;;13.80;8.73;;;;;;;;;;8344309;28;20031;-65
2022/11/30 18:38:48;;;;;;;9.88;7.18;;;;;;;;;;8336702;28;20786;-63
2022/11/30 18:42:48;;;;;;;10.70;6.80;;;;;;;;;;8337334;28;20147;-64
2022/11/30 18:46:48;;;;;;;6.53;5.32;;;;;;;;;;8335269;28;20071;-64
2022/11/30 18:50:48;;;;;;;8.57;5.83;;;;;;;;;;8336937;28;20106;-64
2022/11/30 18:54:49;;;;;;;9.70;5.75;;;;;;;;;;8333788;28;20294;-67
2022/11/30 18:58:53;;;;;;;6.30;5.10;;;;;;;;;;8335941;28;20339;-64
2022/11/30 19:02:53;;;;;;;11.38;7.35;;;;;;;;;;8335296;28;21082;-64
2022/11/30 19:06:53;;;;;;;8.82;7.18;;;;;;;;;;8335321;28;20606;-64
2022/11/30 19:10:53;;;;;;;12.93;7.90;;;;;;;;;;8335278;28;20033;-64
2022/11/30 19:14:54;;;;;;;10.80;7.93;;;;;;;;;;8336514;28;20333;-64
2022/11/30 19:18:54;;;;;;;11.90;8.27;;;;;;;;;;8333319;28;20043;-64
2022/11/30 19:22:54;;;;;;;15.18;9.57;;;;;;;;;;8337459;28;20032;-64
2022/11/30 19:26:55;;;;;;;13.20;9.77;;;;;;;;;;8332572;28;20048;-65
2022/11/30 19:30:55;;;;;;;13.95;10.10;;;;;;;;;;8333980;28;20033;-65
2022/11/30 19:34:56;;;;;;;11.65;8.38;;;;;;;;;;8333109;28;20047;-64
2022/11/30 19:38:58;;;;;;;11.15;7.38;;;;;;;;;;8333503;28;20036;-64
2022/11/30 19:42:58;;;;;;;10.32;7.95;;;;;;;;;;8335721;28;20028;-64
2022/11/30 19:46:58;;;;;;;10.17;7.60;;;;;;;;;;8333703;28;20046;-64
2022/11/30 19:50:58;;;;;;;13.17;7.70;;;;;;;;;;8335191;28;20275;-64
2022/11/30 19:54:59;;;;;;;9.18;6.78;;;;;;;;;;8335595;28;20287;-64
2022/11/30 19:58:59;;;;;;;9.65;5.68;;;;;;;;;;8334157;28;20032;-64
2022/11/30 20:02:59;;;;;;;8.10;6.25;;;;;;;;;;8334351;28;20409;-64
2022/11/30 20:06:59;;;;;;;7.20;6.07;;;;;;;;;;8333173;28;20031;-64
2022/11/30 20:11:00;;;;;;;8.50;6.38;;;;;;;;;;8332179;28;20611;-64
2022/11/30 20:15:00;;;;;;;6.70;5.88;;;;;;;;;;8328562;28;20383;-64
2022/11/30 20:19:00;;;;;;;7.13;5.27;;;;;;;;;;8332593;28;20333;-64
2022/11/30 20:23:01;;;;;;;6.97;5.20;;;;;;;;;;8330921;28;20278;-64
2022/11/30 20:27:02;;;;;;;8.77;5.30;;;;;;;;;;8329937;28;20731;-64
2022/11/30 20:31:03;;;;;;;8.38;5.07;;;;;;;;;;8331004;28;20577;-64
2022/11/30 20:35:05;;;;;;;7.60;5.03;;;;;;;;;;8327031;28;20501;-65
2022/11/30 20:39:05;;;;;;;9.63;5.38;;;;;;;;;;8331235;28;20029;-65
2022/11/30 20:43:06;;;;;;;9.88;5.90;;;;;;;;;;8331269;28;20821;-64
2022/11/30 20:47:06;;;;;;;7.80;5.97;;;;;;;;;;8328291;28;20033;-68
2022/11/30 20:51:13;;;;;;;8.20;6.22;;;;;;;;;;8335494;28;20082;-65
2022/11/30 20:55:14;;;;;;;9.63;6.90;;;;;;;;;;8330800;28;20395;-64
2022/11/30 20:59:17;;;;;;;11.73;8.00;;;;;;;;;;8332541;28;20033;-64
2022/11/30 21:03:18;;;;;;;10.65;8.23;;;;;;;;;;8332789;28;20920;-65
2022/11/30 21:07:18;;;;;;;12.68;8.27;;;;;;;;;;8331393;28;20362;-64
2022/11/30 21:11:19;;;;;;;15.05;9.77;;;;;;;;;;8333661;28;20028;-65
2022/11/30 21:15:19;;;;;;;13.55;9.38;;;;;;;;;;8333313;28;20564;-65
2022/11/30 21:19:19;;;;;;;14.32;9.40;;;;;;;;;;8333277;28;20024;-65
2022/11/30 21:23:20;;;;;;;16.42;9.10;;;;;;;;;;8334751;28;20131;-64
2022/11/30 21:27:20;;;;;;;13.20;9.63;;;;;;;;;;8339251;28;20486;-64
2022/11/30 21:31:21;;;;;;;13.52;9.30;;;;;;;;;;8341461;28;20564;-65
2022/11/30 21:35:22;;;;;;;14.93;9.85;;;;;;;;;;8339839;28;20021;-64
2022/11/30 21:39:22;;;;;;;16.80;10.48;;;;;;;;;;8341050;28;20025;-64
2022/11/30 21:43:22;;;;;;;15.45;10.93;;;;;;;;;;8338857;28;20028;-64
2022/11/30 21:47:22;;;;;;;15.47;10.13;;;;;;;;;;8339640;28;20048;-64
2022/11/30 21:51:23;;;;;;;14.90;11.10;;;;;;;;;;8324357;28;20364;-64
2022/11/30 21:55:24;;;;;;;15.13;10.98;;;;;;;;;;8339849;28;20048;-64
2022/11/30 21:59:24;;;;;;;15.02;11.10;;;;;;;;;;8338954;28;20504;-65
2022/11/30 22:03:24;;;;;;;15.35;11.07;;;;;;;;;;8338482;28;20261;-64
2022/11/30 22:07:30;;;;;;;20.00;12.13;;;;;;;;;;8339116;28;20408;-64
2022/11/30 22:11:30;;;;;;;14.75;10.57;;;;;;;;;;8341309;28;20021;-64
2022/11/30 22:15:31;;;;;;;15.52;11.00;;;;;;;;;;8337230;28;20033;-64
2022/11/30 22:19:31;;;;;;;17.00;10.68;;;;;;;;;;8339352;28;20032;-64
2022/11/30 22:23:35;;;;;;;15.03;10.53;;;;;;;;;;8341218;28;20081;-64
2022/11/30 22:27:35;;;;;;;14.02;10.32;;;;;;;;;;8338673;28;20278;-64
2022/11/30 22:31:37;;;;;;;16.60;11.38;;;;;;;;;;8339941;28;20154;-64
2022/11/30 22:35:38;;;;;;;18.02;11.63;;;;;;;;;;8337941;28;20021;-64
2022/11/30 22:39:38;;;;;;;16.88;10.63;;;;;;;;;;8337633;28;20391;-64
2022/11/30 22:43:38;;;;;;;15.27;10.35;;;;;;;;;;8340570;28;20032;-64
2022/11/30 22:47:39;;;;;;;16.50;11.10;;;;;;;;;;8338845;28;20029;-64
2022/11/30 22:51:39;;;;;;;16.57;10.97;;;;;;;;;;8341849;28;20051;-64
2022/11/30 22:55:40;;;;;;;13.40;10.45;;;;;;;;;;8341664;28;20265;-64
2022/11/30 22:59:40;;;;;;;14.27;10.23;;;;;;;;;;8338620;28;20590;-64
2022/11/30 23:03:41;;;;;;;14.05;10.30;;;;;;;;;;8339861;28;20803;-64
2022/11/30 23:07:41;;;;;;;16.95;10.63;;;;;;;;;;8338773;28;20166;-64
2022/11/30 23:11:41;;;;;;;15.95;10.70;;;;;;;;;;8339364;28;20029;-64
2022/11/30 23:15:42;;;;;;;13.25;9.38;;;;;;;;;;8338084;28;20032;-64
2022/11/30 23:19:42;;;;;;;15.33;10.47;;;;;;;;;;8336564;28;20017;-65
2022/11/30 23:23:43;;;;;;;13.73;9.82;;;;;;;;;;8336105;28;20271;-65
2022/11/30 23:27:43;;;;;;;15.40;10.93;;;;;;;;;;8336294;28;20029;-64
2022/11/30 23:31:43;;;;;;;14.77;11.15;;;;;;;;;;8334170;28;20042;-64
2022/11/30 23:35:44;;;;;;;14.70;10.45;;;;;;;;;;8335383;28;20024;-64
2022/11/30 23:39:44;;;;;;;14.95;10.68;;;;;;;;;;8337785;28;20027;-64
2022/11/30 23:43:44;;;;;;;14.80;10.45;;;;;;;;;;8336663;28;20036;-65